sensor_id;sensor_type;location;lat;lon;timestamp;temperature;humidity
19403;DHT22;9837;48.888;8.998;2023-04-30T00:01:41;16.00;64.00
19403;DHT22;9837;48.888;8.998;2023-04-30T00:04:06;16.00;63.80
19403;DHT22;9837;48.888;8.998;2023-04-30T00:06:32;16.00;64.40
19403;DHT22;9837;48.888;8.998;2023-04-30T00:08:57;16.00;63.50
19403;DHT22;9837;48.888;8.998;2023-04-30T00:13:50;16.20;62.70
19403;DHT22;9837;48.888;8.998;2023-04-30T00:16:16;16.20;63.40
19403;DHT22;9837;48.888;8.998;2023-04-30T00:18:41;16.20;62.60
19403;DHT22;9837;48.888;8.998;2023-04-30T00:21:07;16.20;62.50
19403;DHT22;9837;48.888;8.998;2023-04-30T00:23:32;16.30;63.20
19403;DHT22;9837;48.888;8.998;2023-04-30T00:25:58;16.20;62.50
19403;DHT22;9837;48.888;8.998;2023-04-30T00:28:24;16.20;62.60
19403;DHT22;9837;48.888;8.998;2023-04-30T00:33:15;16.10;62.50
19403;DHT22;9837;48.888;8.998;2023-04-30T00:35:41;16.00;62.90
19403;DHT22;9837;48.888;8.998;2023-04-30T00:38:06;16.00;62.70
19403;DHT22;9837;48.888;8.998;2023-04-30T00:40:34;16.00;62.80
19403;DHT22;9837;48.888;8.998;2023-04-30T00:42:59;16.10;62.70
19403;DHT22;9837;48.888;8.998;2023-04-30T00:45:25;16.00;62.50
19403;DHT22;9837;48.888;8.998;2023-04-30T00:50:16;16.10;62.40
19403;DHT22;9837;48.888;8.998;2023-04-30T00:52:42;16.10;62.00
19403;DHT22;9837;48.888;8.998;2023-04-30T00:55:12;16.10;62.00
19403;DHT22;9837;48.888;8.998;2023-04-30T00:57:38;16.10;62.10
19403;DHT22;9837;48.888;8.998;2023-04-30T01:00:05;16.10;62.10
19403;DHT22;9837;48.888;8.998;2023-04-30T01:02:39;16.10;62.00
19403;DHT22;9837;48.888;8.998;2023-04-30T01:05:05;16.10;62.00
19403;DHT22;9837;48.888;8.998;2023-04-30T01:07:33;15.90;63.10
19403;DHT22;9837;48.888;8.998;2023-04-30T01:09:59;15.90;63.40
19403;DHT22;9837;48.888;8.998;2023-04-30T01:15:21;15.80;64.10
19403;DHT22;9837;48.888;8.998;2023-04-30T01:18:08;15.70;63.50
19403;DHT22;9837;48.888;8.998;2023-04-30T01:20:47;15.80;63.50
19403;DHT22;9837;48.888;8.998;2023-04-30T01:29:11;15.70;63.80
19403;DHT22;9837;48.888;8.998;2023-04-30T01:31:42;15.70;63.80
19403;DHT22;9837;48.888;8.998;2023-04-30T01:39:19;15.70;64.00
19403;DHT22;9837;48.888;8.998;2023-04-30T01:42:20;15.70;64.70
19403;DHT22;9837;48.888;8.998;2023-04-30T01:45:11;15.50;64.70
19403;DHT22;9837;48.888;8.998;2023-04-30T01:48:02;15.40;64.70
19403;DHT22;9837;48.888;8.998;2023-04-30T01:50:37;15.60;64.60
19403;DHT22;9837;48.888;8.998;2023-04-30T01:53:09;15.60;64.40
19403;DHT22;9837;48.888;8.998;2023-04-30T01:55:42;15.60;64.40
19403;DHT22;9837;48.888;8.998;2023-04-30T01:58:12;15.50;64.50
19403;DHT22;9837;48.888;8.998;2023-04-30T02:00:39;15.50;65.30
19403;DHT22;9837;48.888;8.998;2023-04-30T02:03:05;15.30;65.10
19403;DHT22;9837;48.888;8.998;2023-04-30T02:05:31;15.30;64.90
19403;DHT22;9837;48.888;8.998;2023-04-30T02:07:56;15.40;64.50
19403;DHT22;9837;48.888;8.998;2023-04-30T02:10:24;15.30;64.80
19403;DHT22;9837;48.888;8.998;2023-04-30T02:12:50;15.40;64.50
19403;DHT22;9837;48.888;8.998;2023-04-30T02:15:15;15.40;64.60
19403;DHT22;9837;48.888;8.998;2023-04-30T02:17:41;15.20;65.10
19403;DHT22;9837;48.888;8.998;2023-04-30T02:20:07;15.10;65.30
19403;DHT22;9837;48.888;8.998;2023-04-30T02:22:34;15.00;65.90
19403;DHT22;9837;48.888;8.998;2023-04-30T02:25:00;14.60;66.40
19403;DHT22;9837;48.888;8.998;2023-04-30T02:29:52;14.80;66.90
19403;DHT22;9837;48.888;8.998;2023-04-30T02:32:18;15.00;66.60
19403;DHT22;9837;48.888;8.998;2023-04-30T02:34:43;15.30;65.70
19403;DHT22;9837;48.888;8.998;2023-04-30T02:37:09;15.30;64.70
19403;DHT22;9837;48.888;8.998;2023-04-30T02:39:35;15.40;65.40
19403;DHT22;9837;48.888;8.998;2023-04-30T02:44:27;15.20;64.50
19403;DHT22;9837;48.888;8.998;2023-04-30T02:46:52;15.20;64.80
19403;DHT22;9837;48.888;8.998;2023-04-30T02:49:18;15.20;64.90
19403;DHT22;9837;48.888;8.998;2023-04-30T02:51:43;15.30;64.70
19403;DHT22;9837;48.888;8.998;2023-04-30T02:59:01;15.40;64.30
19403;DHT22;9837;48.888;8.998;2023-04-30T03:01:26;15.50;64.00
19403;DHT22;9837;48.888;8.998;2023-04-30T03:03:52;15.30;64.00
19403;DHT22;9837;48.888;8.998;2023-04-30T03:06:17;15.30;64.80
19403;DHT22;9837;48.888;8.998;2023-04-30T03:08:43;15.30;64.10
19403;DHT22;9837;48.888;8.998;2023-04-30T03:11:09;15.30;64.20
19403;DHT22;9837;48.888;8.998;2023-04-30T03:13:34;15.20;64.70
19403;DHT22;9837;48.888;8.998;2023-04-30T03:16:01;15.10;64.90
19403;DHT22;9837;48.888;8.998;2023-04-30T03:18:29;15.10;64.70
19403;DHT22;9837;48.888;8.998;2023-04-30T03:20:54;15.20;64.90
19403;DHT22;9837;48.888;8.998;2023-04-30T03:23:20;15.20;65.50
19403;DHT22;9837;48.888;8.998;2023-04-30T03:25:46;15.30;65.10
19403;DHT22;9837;48.888;8.998;2023-04-30T03:30:37;15.10;64.60
19403;DHT22;9837;48.888;8.998;2023-04-30T03:33:03;15.10;64.50
19403;DHT22;9837;48.888;8.998;2023-04-30T03:35:31;15.20;64.70
19403;DHT22;9837;48.888;8.998;2023-04-30T03:37:57;15.10;65.30
19403;DHT22;9837;48.888;8.998;2023-04-30T03:40:22;15.00;64.90
19403;DHT22;9837;48.888;8.998;2023-04-30T03:42:50;15.00;65.30
19403;DHT22;9837;48.888;8.998;2023-04-30T03:45:16;15.00;66.00
19403;DHT22;9837;48.888;8.998;2023-04-30T03:47:42;15.00;64.90
19403;DHT22;9837;48.888;8.998;2023-04-30T03:50:08;14.90;65.20
19403;DHT22;9837;48.888;8.998;2023-04-30T03:52:34;14.90;65.30
19403;DHT22;9837;48.888;8.998;2023-04-30T03:55:01;14.90;65.70
19403;DHT22;9837;48.888;8.998;2023-04-30T03:57:27;14.90;65.90
19403;DHT22;9837;48.888;8.998;2023-04-30T03:59:53;14.90;65.90
19403;DHT22;9837;48.888;8.998;2023-04-30T04:02:19;15.00;65.70
19403;DHT22;9837;48.888;8.998;2023-04-30T04:04:45;15.10;65.60
19403;DHT22;9837;48.888;8.998;2023-04-30T04:09:37;14.90;66.30
19403;DHT22;9837;48.888;8.998;2023-04-30T04:12:02;14.90;66.60
19403;DHT22;9837;48.888;8.998;2023-04-30T04:14:28;14.80;67.20
19403;DHT22;9837;48.888;8.998;2023-04-30T04:16:54;14.90;66.40
19403;DHT22;9837;48.888;8.998;2023-04-30T04:19:22;14.90;67.00
19403;DHT22;9837;48.888;8.998;2023-04-30T04:24:13;15.00;65.80
19403;DHT22;9837;48.888;8.998;2023-04-30T04:26:39;14.70;67.10
19403;DHT22;9837;48.888;8.998;2023-04-30T04:29:05;14.70;67.20
19403;DHT22;9837;48.888;8.998;2023-04-30T04:31:33;14.70;67.00
19403;DHT22;9837;48.888;8.998;2023-04-30T04:33:59;14.70;67.70
19403;DHT22;9837;48.888;8.998;2023-04-30T04:36:26;14.80;67.30
19403;DHT22;9837;48.888;8.998;2023-04-30T04:38:56;15.00;65.80
19403;DHT22;9837;48.888;8.998;2023-04-30T04:41:32;15.00;66.40
19403;DHT22;9837;48.888;8.998;2023-04-30T04:44:01;15.20;65.30
19403;DHT22;9837;48.888;8.998;2023-04-30T04:46:28;15.20;65.00
19403;DHT22;9837;48.888;8.998;2023-04-30T04:48:54;15.30;64.80
19403;DHT22;9837;48.888;8.998;2023-04-30T04:51:20;15.30;64.80
19403;DHT22;9837;48.888;8.998;2023-04-30T04:53:45;15.40;64.60
19403;DHT22;9837;48.888;8.998;2023-04-30T04:56:11;15.40;64.60
19403;DHT22;9837;48.888;8.998;2023-04-30T04:58:37;15.40;64.90
19403;DHT22;9837;48.888;8.998;2023-04-30T05:01:03;15.60;64.70
19403;DHT22;9837;48.888;8.998;2023-04-30T05:03:30;15.70;64.40
19403;DHT22;9837;48.888;8.998;2023-04-30T05:05:57;15.70;64.50
19403;DHT22;9837;48.888;8.998;2023-04-30T05:08:22;15.70;64.50
19403;DHT22;9837;48.888;8.998;2023-04-30T05:10:48;15.70;64.30
19403;DHT22;9837;48.888;8.998;2023-04-30T05:13:13;15.80;64.30
19403;DHT22;9837;48.888;8.998;2023-04-30T05:15:39;15.70;64.20
19403;DHT22;9837;48.888;8.998;2023-04-30T05:18:04;15.80;65.00
19403;DHT22;9837;48.888;8.998;2023-04-30T05:20:30;15.90;64.80
19403;DHT22;9837;48.888;8.998;2023-04-30T05:22:56;15.90;63.50
19403;DHT22;9837;48.888;8.998;2023-04-30T05:25:21;16.00;63.10
19403;DHT22;9837;48.888;8.998;2023-04-30T05:27:47;16.00;62.90
19403;DHT22;9837;48.888;8.998;2023-04-30T05:30:12;16.10;63.70
19403;DHT22;9837;48.888;8.998;2023-04-30T05:32:40;16.00;63.10
19403;DHT22;9837;48.888;8.998;2023-04-30T05:35:06;16.10;63.00
19403;DHT22;9837;48.888;8.998;2023-04-30T05:37:32;16.10;62.90
19403;DHT22;9837;48.888;8.998;2023-04-30T05:39:57;16.10;62.60
19403;DHT22;9837;48.888;8.998;2023-04-30T05:42:23;16.10;63.20
19403;DHT22;9837;48.888;8.998;2023-04-30T05:44:48;15.80;63.10
19403;DHT22;9837;48.888;8.998;2023-04-30T05:47:14;15.80;63.80
19403;DHT22;9837;48.888;8.998;2023-04-30T05:49:40;15.70;64.30
19403;DHT22;9837;48.888;8.998;2023-04-30T05:52:05;15.60;63.80
19403;DHT22;9837;48.888;8.998;2023-04-30T05:54:31;15.60;64.50
19403;DHT22;9837;48.888;8.998;2023-04-30T05:56:56;15.30;64.80
19403;DHT22;9837;48.888;8.998;2023-04-30T05:59:22;15.20;65.50
19403;DHT22;9837;48.888;8.998;2023-04-30T06:01:48;15.20;66.30
19403;DHT22;9837;48.888;8.998;2023-04-30T06:04:13;15.60;64.80
19403;DHT22;9837;48.888;8.998;2023-04-30T06:06:39;15.70;64.10
19403;DHT22;9837;48.888;8.998;2023-04-30T06:09:04;15.70;64.70
19403;DHT22;9837;48.888;8.998;2023-04-30T06:11:30;16.10;63.10
19403;DHT22;9837;48.888;8.998;2023-04-30T06:13:55;16.20;61.70
19403;DHT22;9837;48.888;8.998;2023-04-30T06:16:22;16.40;61.50
19403;DHT22;9837;48.888;8.998;2023-04-30T06:18:47;16.40;60.70
19403;DHT22;9837;48.888;8.998;2023-04-30T06:21:13;16.50;61.00
19403;DHT22;9837;48.888;8.998;2023-04-30T06:23:38;16.60;61.10
19403;DHT22;9837;48.888;8.998;2023-04-30T06:26:04;16.60;61.80
19403;DHT22;9837;48.888;8.998;2023-04-30T06:28:30;16.80;61.00
19403;DHT22;9837;48.888;8.998;2023-04-30T06:30:55;17.60;58.70
19403;DHT22;9837;48.888;8.998;2023-04-30T06:33:21;17.60;59.20
19403;DHT22;9837;48.888;8.998;2023-04-30T06:35:47;18.60;57.40
19403;DHT22;9837;48.888;8.998;2023-04-30T06:38:13;19.50;54.70
19403;DHT22;9837;48.888;8.998;2023-04-30T06:40:38;19.90;52.90
19403;DHT22;9837;48.888;8.998;2023-04-30T06:43:04;19.90;53.30
19403;DHT22;9837;48.888;8.998;2023-04-30T06:47:56;19.40;53.00
19403;DHT22;9837;48.888;8.998;2023-04-30T06:50:21;19.20;53.70
19403;DHT22;9837;48.888;8.998;2023-04-30T06:55:13;19.90;52.50
19403;DHT22;9837;48.888;8.998;2023-04-30T07:00:06;19.10;52.90
19403;DHT22;9837;48.888;8.998;2023-04-30T07:02:32;19.10;53.60
19403;DHT22;9837;48.888;8.998;2023-04-30T07:04:57;19.10;54.00
19403;DHT22;9837;48.888;8.998;2023-04-30T07:07:23;19.40;53.20
19403;DHT22;9837;48.888;8.998;2023-04-30T07:12:15;19.30;53.00
19403;DHT22;9837;48.888;8.998;2023-04-30T07:14:40;19.60;52.50
19403;DHT22;9837;48.888;8.998;2023-04-30T07:17:06;19.60;52.10
19403;DHT22;9837;48.888;8.998;2023-04-30T07:19:32;19.30;52.90
19403;DHT22;9837;48.888;8.998;2023-04-30T07:21:57;18.90;53.50
19403;DHT22;9837;48.888;8.998;2023-04-30T07:24:23;18.50;55.30
19403;DHT22;9837;48.888;8.998;2023-04-30T07:26:48;18.40;54.10
19403;DHT22;9837;48.888;8.998;2023-04-30T07:29:14;18.40;54.70
19403;DHT22;9837;48.888;8.998;2023-04-30T07:31:39;17.50;55.50
19403;DHT22;9837;48.888;8.998;2023-04-30T07:34:05;17.60;56.20
19403;DHT22;9837;48.888;8.998;2023-04-30T07:36:30;17.60;55.70
19403;DHT22;9837;48.888;8.998;2023-04-30T07:38:56;17.60;55.40
19403;DHT22;9837;48.888;8.998;2023-04-30T07:41:23;17.80;55.80
19403;DHT22;9837;48.888;8.998;2023-04-30T07:43:49;17.80;55.20
19403;DHT22;9837;48.888;8.998;2023-04-30T07:46:14;17.80;55.30
19403;DHT22;9837;48.888;8.998;2023-04-30T07:48:40;17.90;55.90
19403;DHT22;9837;48.888;8.998;2023-04-30T07:51:05;18.20;55.50
19403;DHT22;9837;48.888;8.998;2023-04-30T07:53:31;18.50;54.60
19403;DHT22;9837;48.888;8.998;2023-04-30T08:00:48;19.00;54.20
19403;DHT22;9837;48.888;8.998;2023-04-30T08:03:13;18.90;54.20
19403;DHT22;9837;48.888;8.998;2023-04-30T08:05:39;19.00;52.80
19403;DHT22;9837;48.888;8.998;2023-04-30T08:08:05;18.80;52.80
19403;DHT22;9837;48.888;8.998;2023-04-30T08:10:31;18.50;52.40
19403;DHT22;9837;48.888;8.998;2023-04-30T08:12:56;18.40;53.30
19403;DHT22;9837;48.888;8.998;2023-04-30T08:15:22;18.50;53.20
19403;DHT22;9837;48.888;8.998;2023-04-30T08:17:49;18.70;52.90
19403;DHT22;9837;48.888;8.998;2023-04-30T08:20:15;18.80;52.70
19403;DHT22;9837;48.888;8.998;2023-04-30T08:25:12;19.00;49.70
19403;DHT22;9837;48.888;8.998;2023-04-30T08:27:38;18.50;49.90
19403;DHT22;9837;48.888;8.998;2023-04-30T08:30:05;18.20;51.00
19403;DHT22;9837;48.888;8.998;2023-04-30T08:32:34;18.50;51.30
19403;DHT22;9837;48.888;8.998;2023-04-30T08:35:06;18.70;51.00
19403;DHT22;9837;48.888;8.998;2023-04-30T08:37:32;18.70;51.70
19403;DHT22;9837;48.888;8.998;2023-04-30T08:39:58;18.30;50.10
19403;DHT22;9837;48.888;8.998;2023-04-30T08:42:35;18.30;50.70
19403;DHT22;9837;48.888;8.998;2023-04-30T08:45:03;18.60;51.10
19403;DHT22;9837;48.888;8.998;2023-04-30T08:47:29;18.70;51.90
19403;DHT22;9837;48.888;8.998;2023-04-30T08:49:55;19.00;49.80
19403;DHT22;9837;48.888;8.998;2023-04-30T08:52:21;18.80;48.70
19403;DHT22;9837;48.888;8.998;2023-04-30T08:54:47;18.60;49.20
19403;DHT22;9837;48.888;8.998;2023-04-30T08:57:14;18.10;50.00
19403;DHT22;9837;48.888;8.998;2023-04-30T08:59:40;18.10;50.80
19403;DHT22;9837;48.888;8.998;2023-04-30T09:02:06;17.60;51.20
19403;DHT22;9837;48.888;8.998;2023-04-30T09:04:32;17.60;51.50
19403;DHT22;9837;48.888;8.998;2023-04-30T09:06:58;17.70;51.70
19403;DHT22;9837;48.888;8.998;2023-04-30T09:09:29;17.70;52.20
19403;DHT22;9837;48.888;8.998;2023-04-30T09:14:40;18.00;50.40
19403;DHT22;9837;48.888;8.998;2023-04-30T09:17:06;18.00;51.00
19403;DHT22;9837;48.888;8.998;2023-04-30T09:19:33;18.20;50.20
19403;DHT22;9837;48.888;8.998;2023-04-30T09:22:08;18.70;50.00
19403;DHT22;9837;48.888;8.998;2023-04-30T09:24:46;18.60;50.30
19403;DHT22;9837;48.888;8.998;2023-04-30T09:27:21;18.60;47.20
19403;DHT22;9837;48.888;8.998;2023-04-30T09:29:46;18.50;48.90
19403;DHT22;9837;48.888;8.998;2023-04-30T09:32:12;18.50;49.20
19403;DHT22;9837;48.888;8.998;2023-04-30T09:34:38;18.50;49.70
19403;DHT22;9837;48.888;8.998;2023-04-30T09:37:04;18.40;48.00
19403;DHT22;9837;48.888;8.998;2023-04-30T09:39:30;18.40;48.50
19403;DHT22;9837;48.888;8.998;2023-04-30T09:42:09;18.40;49.10
19403;DHT22;9837;48.888;8.998;2023-04-30T09:44:37;18.60;48.40
19403;DHT22;9837;48.888;8.998;2023-04-30T09:47:03;18.90;46.90
19403;DHT22;9837;48.888;8.998;2023-04-30T09:49:29;18.50;46.50
19403;DHT22;9837;48.888;8.998;2023-04-30T09:51:59;18.50;47.00
19403;DHT22;9837;48.888;8.998;2023-04-30T09:54:30;18.20;48.00
19403;DHT22;9837;48.888;8.998;2023-04-30T09:57:00;18.20;48.40
19403;DHT22;9837;48.888;8.998;2023-04-30T09:59:31;18.40;47.10
19403;DHT22;9837;48.888;8.998;2023-04-30T10:01:58;18.20;47.00
19403;DHT22;9837;48.888;8.998;2023-04-30T10:04:30;18.20;47.60
19403;DHT22;9837;48.888;8.998;2023-04-30T10:06:59;18.70;49.00
19403;DHT22;9837;48.888;8.998;2023-04-30T10:09:28;19.20;48.80
19403;DHT22;9837;48.888;8.998;2023-04-30T10:11:56;19.30;46.80
19403;DHT22;9837;48.888;8.998;2023-04-30T10:14:24;19.20;46.40
19403;DHT22;9837;48.888;8.998;2023-04-30T10:17:02;19.20;47.00
19403;DHT22;9837;48.888;8.998;2023-04-30T10:19:33;19.10;45.40
19403;DHT22;9837;48.888;8.998;2023-04-30T10:22:00;19.10;45.80
19403;DHT22;9837;48.888;8.998;2023-04-30T10:24:26;18.70;46.50
19403;DHT22;9837;48.888;8.998;2023-04-30T10:26:53;18.50;47.20
19403;DHT22;9837;48.888;8.998;2023-04-30T10:29:19;18.30;46.90
19403;DHT22;9837;48.888;8.998;2023-04-30T10:31:48;18.10;48.00
19403;DHT22;9837;48.888;8.998;2023-04-30T10:37:33;18.20;48.30
19403;DHT22;9837;48.888;8.998;2023-04-30T10:40:00;18.10;47.90
19403;DHT22;9837;48.888;8.998;2023-04-30T10:42:29;18.40;48.30
19403;DHT22;9837;48.888;8.998;2023-04-30T10:44:54;18.70;46.20
19403;DHT22;9837;48.888;8.998;2023-04-30T10:47:27;18.70;46.70
19403;DHT22;9837;48.888;8.998;2023-04-30T10:50:01;18.80;47.90
19403;DHT22;9837;48.888;8.998;2023-04-30T10:52:28;18.90;47.80
19403;DHT22;9837;48.888;8.998;2023-04-30T10:54:54;19.20;46.80
19403;DHT22;9837;48.888;8.998;2023-04-30T10:57:20;19.30;46.10
19403;DHT22;9837;48.888;8.998;2023-04-30T11:02:44;19.50;46.80
19403;DHT22;9837;48.888;8.998;2023-04-30T11:05:11;19.30;44.90
19403;DHT22;9837;48.888;8.998;2023-04-30T11:07:48;19.20;45.00
19403;DHT22;9837;48.888;8.998;2023-04-30T11:10:15;19.20;45.50
19403;DHT22;9837;48.888;8.998;2023-04-30T11:12:43;19.30;46.70
19403;DHT22;9837;48.888;8.998;2023-04-30T11:15:13;19.60;45.60
19403;DHT22;9837;48.888;8.998;2023-04-30T11:17:41;19.60;45.10
19403;DHT22;9837;48.888;8.998;2023-04-30T11:20:11;19.60;44.60
19403;DHT22;9837;48.888;8.998;2023-04-30T11:25:07;19.70;44.80
19403;DHT22;9837;48.888;8.998;2023-04-30T11:27:35;19.70;45.10
19403;DHT22;9837;48.888;8.998;2023-04-30T11:30:02;20.00;45.00
19403;DHT22;9837;48.888;8.998;2023-04-30T11:32:34;19.80;44.10
19403;DHT22;9837;48.888;8.998;2023-04-30T11:35:01;19.60;44.70
19403;DHT22;9837;48.888;8.998;2023-04-30T11:37:29;19.90;44.90
19403;DHT22;9837;48.888;8.998;2023-04-30T11:39:56;20.10;45.40
19403;DHT22;9837;48.888;8.998;2023-04-30T11:42:23;19.90;44.90
19403;DHT22;9837;48.888;8.998;2023-04-30T11:44:48;19.90;45.00
19403;DHT22;9837;48.888;8.998;2023-04-30T11:47:14;20.00;45.60
19403;DHT22;9837;48.888;8.998;2023-04-30T11:49:40;19.80;44.80
19403;DHT22;9837;48.888;8.998;2023-04-30T11:52:06;19.70;45.10
19403;DHT22;9837;48.888;8.998;2023-04-30T11:54:35;19.50;44.30
19403;DHT22;9837;48.888;8.998;2023-04-30T11:57:02;19.60;44.60
19403;DHT22;9837;48.888;8.998;2023-04-30T11:59:29;19.40;44.90
19403;DHT22;9837;48.888;8.998;2023-04-30T12:01:55;19.10;45.60
19403;DHT22;9837;48.888;8.998;2023-04-30T12:04:21;19.20;45.60
19403;DHT22;9837;48.888;8.998;2023-04-30T12:06:47;19.20;45.20
19403;DHT22;9837;48.888;8.998;2023-04-30T12:09:13;19.20;45.80
19403;DHT22;9837;48.888;8.998;2023-04-30T12:11:39;19.30;45.50
19403;DHT22;9837;48.888;8.998;2023-04-30T12:14:05;19.40;46.00
19403;DHT22;9837;48.888;8.998;2023-04-30T12:16:42;19.70;45.40
19403;DHT22;9837;48.888;8.998;2023-04-30T12:19:10;19.90;45.60
19403;DHT22;9837;48.888;8.998;2023-04-30T12:21:38;19.70;46.40
19403;DHT22;9837;48.888;8.998;2023-04-30T12:24:04;19.40;44.80
19403;DHT22;9837;48.888;8.998;2023-04-30T12:26:35;19.30;46.00
19403;DHT22;9837;48.888;8.998;2023-04-30T12:29:15;19.30;46.60
19403;DHT22;9837;48.888;8.998;2023-04-30T12:31:41;19.20;46.90
19403;DHT22;9837;48.888;8.998;2023-04-30T12:34:08;19.00;46.00
19403;DHT22;9837;48.888;8.998;2023-04-30T12:36:34;19.00;46.60
19403;DHT22;9837;48.888;8.998;2023-04-30T12:39:10;19.50;45.50
19403;DHT22;9837;48.888;8.998;2023-04-30T12:46:49;19.60;45.80
19403;DHT22;9837;48.888;8.998;2023-04-30T12:51:50;19.40;46.30
19403;DHT22;9837;48.888;8.998;2023-04-30T12:54:30;19.60;45.20
19403;DHT22;9837;48.888;8.998;2023-04-30T12:56:58;19.80;43.80
19403;DHT22;9837;48.888;8.998;2023-04-30T12:59:26;19.60;43.40
19403;DHT22;9837;48.888;8.998;2023-04-30T13:01:51;19.50;44.90
19403;DHT22;9837;48.888;8.998;2023-04-30T13:04:19;19.30;44.10
19403;DHT22;9837;48.888;8.998;2023-04-30T13:06:44;19.10;45.40
19403;DHT22;9837;48.888;8.998;2023-04-30T13:09:10;19.40;45.40
19403;DHT22;9837;48.888;8.998;2023-04-30T13:11:37;19.80;44.60
19403;DHT22;9837;48.888;8.998;2023-04-30T13:14:02;19.90;44.90
19403;DHT22;9837;48.888;8.998;2023-04-30T13:16:29;20.30;43.80
19403;DHT22;9837;48.888;8.998;2023-04-30T13:18:55;20.10;42.50
19403;DHT22;9837;48.888;8.998;2023-04-30T13:21:21;20.10;43.00
19403;DHT22;9837;48.888;8.998;2023-04-30T13:23:46;20.00;44.90
19403;DHT22;9837;48.888;8.998;2023-04-30T13:26:12;19.80;44.80
19403;DHT22;9837;48.888;8.998;2023-04-30T13:28:37;19.70;45.30
19403;DHT22;9837;48.888;8.998;2023-04-30T13:31:03;19.40;45.10
19403;DHT22;9837;48.888;8.998;2023-04-30T13:33:29;19.30;47.30
19403;DHT22;9837;48.888;8.998;2023-04-30T13:35:54;19.40;46.20
19403;DHT22;9837;48.888;8.998;2023-04-30T13:38:20;19.60;44.90
19403;DHT22;9837;48.888;8.998;2023-04-30T13:40:46;19.80;44.80
19403;DHT22;9837;48.888;8.998;2023-04-30T13:43:11;20.00;43.40
19403;DHT22;9837;48.888;8.998;2023-04-30T13:45:37;20.00;43.90
19403;DHT22;9837;48.888;8.998;2023-04-30T13:48:03;20.10;44.40
19403;DHT22;9837;48.888;8.998;2023-04-30T13:52:54;20.20;44.20
19403;DHT22;9837;48.888;8.998;2023-04-30T13:57:46;20.00;44.20
19403;DHT22;9837;48.888;8.998;2023-04-30T14:00:12;20.10;43.80
19403;DHT22;9837;48.888;8.998;2023-04-30T14:02:38;20.30;43.60
19403;DHT22;9837;48.888;8.998;2023-04-30T14:05:03;20.30;42.80
19403;DHT22;9837;48.888;8.998;2023-04-30T14:07:30;20.10;43.10
19403;DHT22;9837;48.888;8.998;2023-04-30T14:09:55;19.80;42.80
19403;DHT22;9837;48.888;8.998;2023-04-30T14:12:21;19.80;43.80
19403;DHT22;9837;48.888;8.998;2023-04-30T14:14:48;19.90;44.30
19403;DHT22;9837;48.888;8.998;2023-04-30T14:17:14;20.10;43.40
19403;DHT22;9837;48.888;8.998;2023-04-30T14:19:40;20.10;43.90
19403;DHT22;9837;48.888;8.998;2023-04-30T14:24:31;20.10;44.10
19403;DHT22;9837;48.888;8.998;2023-04-30T14:26:57;19.90;43.80
19403;DHT22;9837;48.888;8.998;2023-04-30T14:29:24;20.00;44.50
19403;DHT22;9837;48.888;8.998;2023-04-30T14:31:51;20.00;45.00
19403;DHT22;9837;48.888;8.998;2023-04-30T14:34:16;19.90;45.60
19403;DHT22;9837;48.888;8.998;2023-04-30T14:36:42;20.20;45.50
19403;DHT22;9837;48.888;8.998;2023-04-30T14:39:07;20.30;43.30
19403;DHT22;9837;48.888;8.998;2023-04-30T14:41:34;20.30;43.20
19403;DHT22;9837;48.888;8.998;2023-04-30T14:44:00;20.00;43.20
19403;DHT22;9837;48.888;8.998;2023-04-30T14:48:52;19.90;44.20
19403;DHT22;9837;48.888;8.998;2023-04-30T14:51:18;19.60;44.40
19403;DHT22;9837;48.888;8.998;2023-04-30T14:53:44;19.80;45.10
19403;DHT22;9837;48.888;8.998;2023-04-30T14:56:09;20.10;45.20
19403;DHT22;9837;48.888;8.998;2023-04-30T14:58:35;20.10;43.90
19403;DHT22;9837;48.888;8.998;2023-04-30T15:01:00;20.10;44.40
19403;DHT22;9837;48.888;8.998;2023-04-30T15:03:26;20.30;43.80
19403;DHT22;9837;48.888;8.998;2023-04-30T15:08:17;20.40;43.20
19403;DHT22;9837;48.888;8.998;2023-04-30T15:10:43;20.20;43.10
19403;DHT22;9837;48.888;8.998;2023-04-30T15:13:09;20.00;44.00
19403;DHT22;9837;48.888;8.998;2023-04-30T15:15:34;20.00;44.20
19403;DHT22;9837;48.888;8.998;2023-04-30T15:18:01;19.90;42.80
19403;DHT22;9837;48.888;8.998;2023-04-30T15:22:54;19.60;42.50
19403;DHT22;9837;48.888;8.998;2023-04-30T15:25:20;19.70;43.40
19403;DHT22;9837;48.888;8.998;2023-04-30T15:27:46;19.90;43.20
19403;DHT22;9837;48.888;8.998;2023-04-30T15:32:38;20.10;43.20
19403;DHT22;9837;48.888;8.998;2023-04-30T15:35:04;20.10;43.50
19403;DHT22;9837;48.888;8.998;2023-04-30T15:37:30;20.10;44.00
19403;DHT22;9837;48.888;8.998;2023-04-30T15:39:56;19.80;42.70
19403;DHT22;9837;48.888;8.998;2023-04-30T15:42:21;19.60;43.20
19403;DHT22;9837;48.888;8.998;2023-04-30T15:44:47;19.80;43.60
19403;DHT22;9837;48.888;8.998;2023-04-30T15:47:12;19.80;42.90
19403;DHT22;9837;48.888;8.998;2023-04-30T15:52:04;19.60;43.00
19403;DHT22;9837;48.888;8.998;2023-04-30T15:54:30;19.50;44.10
19403;DHT22;9837;48.888;8.998;2023-04-30T15:56:55;19.50;44.70
19403;DHT22;9837;48.888;8.998;2023-04-30T15:59:22;19.90;45.00
19403;DHT22;9837;48.888;8.998;2023-04-30T16:01:48;20.20;44.20
19403;DHT22;9837;48.888;8.998;2023-04-30T16:04:13;20.30;43.60
19403;DHT22;9837;48.888;8.998;2023-04-30T16:09:04;20.30;44.10
19403;DHT22;9837;48.888;8.998;2023-04-30T16:11:33;20.20;43.00
19403;DHT22;9837;48.888;8.998;2023-04-30T16:13:58;20.20;43.50
19403;DHT22;9837;48.888;8.998;2023-04-30T16:16:24;20.50;43.70
19403;DHT22;9837;48.888;8.998;2023-04-30T16:18:49;20.40;44.60
19403;DHT22;9837;48.888;8.998;2023-04-30T16:23:42;20.50;44.90
19403;DHT22;9837;48.888;8.998;2023-04-30T16:26:07;20.50;44.40
19403;DHT22;9837;48.888;8.998;2023-04-30T16:28:36;20.50;44.90
19403;DHT22;9837;48.888;8.998;2023-04-30T16:31:01;20.40;44.30
19403;DHT22;9837;48.888;8.998;2023-04-30T16:33:27;20.40;44.90
19403;DHT22;9837;48.888;8.998;2023-04-30T16:35:53;20.10;44.40
19403;DHT22;9837;48.888;8.998;2023-04-30T16:38:19;20.00;44.80
19403;DHT22;9837;48.888;8.998;2023-04-30T16:40:46;19.90;45.30
19403;DHT22;9837;48.888;8.998;2023-04-30T16:43:12;19.50;45.70
19403;DHT22;9837;48.888;8.998;2023-04-30T16:45:37;19.60;45.50
19403;DHT22;9837;48.888;8.998;2023-04-30T16:48:03;19.80;45.60
19403;DHT22;9837;48.888;8.998;2023-04-30T16:50:29;19.90;44.60
19403;DHT22;9837;48.888;8.998;2023-04-30T16:52:55;20.10;44.30
19403;DHT22;9837;48.888;8.998;2023-04-30T16:55:20;20.40;44.00
19403;DHT22;9837;48.888;8.998;2023-04-30T16:57:46;20.30;43.60
19403;DHT22;9837;48.888;8.998;2023-04-30T17:00:12;20.30;44.10
19403;DHT22;9837;48.888;8.998;2023-04-30T17:02:39;20.30;44.40
19403;DHT22;9837;48.888;8.998;2023-04-30T17:05:08;20.30;44.90
19403;DHT22;9837;48.888;8.998;2023-04-30T17:07:33;20.30;45.50
19403;DHT22;9837;48.888;8.998;2023-04-30T17:09:59;20.10;45.20
19403;DHT22;9837;48.888;8.998;2023-04-30T17:12:24;20.20;45.80
19403;DHT22;9837;48.888;8.998;2023-04-30T17:19:42;19.70;45.80
19403;DHT22;9837;48.888;8.998;2023-04-30T17:22:07;19.70;46.40
19403;DHT22;9837;48.888;8.998;2023-04-30T17:24:33;19.60;46.20
19403;DHT22;9837;48.888;8.998;2023-04-30T17:26:59;19.80;46.00